createdAt,value
2017-05-16T00:01:04.142Z,73.30
2017-05-16T00:03:38.418Z,73.20
2017-05-16T00:06:07.946Z,72.70
2017-05-16T00:08:38.490Z,72.30
2017-05-16T00:11:08.022Z,72.30
2017-05-16T00:13:37.554Z,72.80
2017-05-16T00:16:10.338Z,72.60
2017-05-16T00:18:40.799Z,72.40
2017-05-16T00:21:10.369Z,73.00
2017-05-16T00:23:39.913Z,72.60
2017-05-16T00:26:11.402Z,72.20
2017-05-16T00:28:41.885Z,72.50
2017-05-16T00:31:13.366Z,72.40
2017-05-16T00:33:42.893Z,72.10
2017-05-16T00:36:17.837Z,73.20
2017-05-16T00:38:47.342Z,72.10
2017-05-16T00:41:16.878Z,72.50
2017-05-16T00:43:51.917Z,72.50
2017-05-16T00:46:22.469Z,73.00
2017-05-16T00:49:15.381Z,72.80
2017-05-16T00:51:46.137Z,72.40
2017-05-16T00:54:28.365Z,72.90
2017-05-16T00:57:01.649Z,73.40
2017-05-16T00:59:34.301Z,73.10
2017-05-16T01:02:09.053Z,73.50
2017-05-16T01:04:38.586Z,74.20
2017-05-16T01:07:08.129Z,75.40
2017-05-16T01:09:41.433Z,76.30
2017-05-16T01:12:11.905Z,77.30
2017-05-16T01:14:49.874Z,77.20
2017-05-16T01:17:20.596Z,77.10
2017-05-16T01:19:56.941Z,76.60
2017-05-16T01:22:27.462Z,76.80
2017-05-16T01:24:56.985Z,76.50
2017-05-16T01:27:26.521Z,76.40
2017-05-16T01:29:56.053Z,76.80
2017-05-16T01:32:32.977Z,76.70
2017-05-16T01:35:04.440Z,76.80
2017-05-16T01:37:33.989Z,76.40
2017-05-16T01:40:04.468Z,77.20
2017-05-16T01:42:38.401Z,76.10
2017-05-16T01:45:13.793Z,76.10
2017-05-16T01:47:46.949Z,76.20
2017-05-16T01:50:27.652Z,75.50
2017-05-16T01:52:57.961Z,75.20
2017-05-16T01:55:27.501Z,75.20
2017-05-16T01:57:58.349Z,75.10
2017-05-16T02:00:35.908Z,74.90
2017-05-16T02:03:06.224Z,74.90
2017-05-16T02:05:52.084Z,75.20
2017-05-16T02:08:21.648Z,75.00
2017-05-16T02:10:51.204Z,75.00
2017-05-16T02:13:20.744Z,75.00
2017-05-16T02:15:52.028Z,75.70
2017-05-16T02:18:27.341Z,75.50
2017-05-16T02:21:00.260Z,75.50
2017-05-16T02:23:35.060Z,75.60
2017-05-16T02:26:04.632Z,75.80
2017-05-16T02:28:34.181Z,75.30
2017-05-16T02:31:04.732Z,75.10
2017-05-16T02:33:35.224Z,75.10
2017-05-16T02:36:19.220Z,74.80
2017-05-16T02:38:48.776Z,74.60
2017-05-16T02:41:20.232Z,74.40
2017-05-16T02:43:54.036Z,75.20
2017-05-16T02:46:27.780Z,76.70
2017-05-16T02:48:57.324Z,77.30
2017-05-16T02:51:26.860Z,80.30
2017-05-16T02:54:12.589Z,81.20
2017-05-16T02:56:51.708Z,81.10
2017-05-16T02:59:25.864Z,80.90
2017-05-16T03:01:58.591Z,80.60
2017-05-16T03:04:34.059Z,79.80
2017-05-16T03:07:05.579Z,79.20
2017-05-16T03:09:40.988Z,79.20
2017-05-16T03:12:10.524Z,79.60
2017-05-16T03:14:44.804Z,79.90
2017-05-16T03:17:14.363Z,80.70
2017-05-16T03:19:43.889Z,80.20
2017-05-16T03:22:13.460Z,79.90
2017-05-16T03:24:42.968Z,79.60
2017-05-16T03:27:12.504Z,78.80
2017-05-16T03:29:42.056Z,79.00
2017-05-16T03:32:11.576Z,78.80
2017-05-16T03:34:41.108Z,76.90
2017-05-16T03:37:11.634Z,76.90
2017-05-16T03:39:43.156Z,77.10
2017-05-16T03:42:12.675Z,78.30
2017-05-16T03:44:42.199Z,76.60
2017-05-16T03:47:11.740Z,76.80
2017-05-16T03:49:43.200Z,76.80
2017-05-16T03:52:13.715Z,77.50
2017-05-16T03:54:43.483Z,76.50
2017-05-16T03:57:13.007Z,76.80
2017-05-16T03:59:44.292Z,77.40
2017-05-16T04:04:42.686Z,78.90
2017-05-16T04:07:13.431Z,79.60
2017-05-16T04:09:42.965Z,80.10
2017-05-16T04:12:12.483Z,80.60
2017-05-16T04:14:42.035Z,79.20
2017-05-16T04:17:11.559Z,79.40
2017-05-16T04:19:42.075Z,79.40
2017-05-16T04:22:11.595Z,78.20
2017-05-16T04:24:41.151Z,77.80
2017-05-16T04:27:12.411Z,78.60
2017-05-16T04:29:41.938Z,79.90
2017-05-16T04:32:11.466Z,79.40
2017-05-16T04:34:41.022Z,79.60
2017-05-16T04:37:10.886Z,79.50
2017-05-16T04:39:41.366Z,79.50
2017-05-16T04:42:10.918Z,78.20
2017-05-16T04:44:40.443Z,78.00
2017-05-16T04:47:09.982Z,78.10
2017-05-16T04:49:39.942Z,79.00
2017-05-16T04:52:09.551Z,79.00
2017-05-16T04:54:39.103Z,78.90
2017-05-16T04:57:08.623Z,78.50
2017-05-16T04:59:38.175Z,78.00
2017-05-16T05:02:16.186Z,77.50
2017-05-16T05:04:46.722Z,76.60
2017-05-16T05:07:17.038Z,78.10
2017-05-16T05:09:46.665Z,78.20
2017-05-16T05:12:18.974Z,77.50
2017-05-16T05:14:52.466Z,77.20
2017-05-16T05:17:23.042Z,77.20
2017-05-16T05:19:52.599Z,77.30
2017-05-16T05:22:23.832Z,78.00
2017-05-16T05:24:54.462Z,78.70
2017-05-16T05:27:24.998Z,79.20
2017-05-16T05:29:57.806Z,79.60
2017-05-16T05:32:27.350Z,80.00
2017-05-16T05:34:58.349Z,79.60
2017-05-16T05:37:29.862Z,79.60
2017-05-16T05:40:03.074Z,79.60
2017-05-16T05:42:32.638Z,78.70
2017-05-16T05:45:14.378Z,79.30
2017-05-16T05:47:44.901Z,80.60
2017-05-16T05:50:14.734Z,81.10
2017-05-16T05:52:45.218Z,79.50
2017-05-16T05:55:20.541Z,77.90
2017-05-16T05:57:56.390Z,77.70
2017-05-16T06:00:32.070Z,78.20
2017-05-16T06:03:01.602Z,80.10
2017-05-16T06:05:32.070Z,81.00
2017-05-16T06:08:05.651Z,80.60
2017-05-16T06:10:35.205Z,81.00
2017-05-16T06:13:11.261Z,80.70
2017-05-16T06:15:46.586Z,79.30
2017-05-16T06:18:33.373Z,77.30
2017-05-16T06:21:04.809Z,77.20
2017-05-16T06:23:34.337Z,76.60
2017-05-16T06:26:04.630Z,76.30
2017-05-16T06:28:34.222Z,75.70
2017-05-16T06:31:03.813Z,75.20
2017-05-16T06:33:33.362Z,74.60
2017-05-16T06:36:02.886Z,74.60
2017-05-16T06:38:33.186Z,75.10
2017-05-16T06:41:02.713Z,75.10
2017-05-16T06:43:33.018Z,75.40
2017-05-16T06:46:03.453Z,74.90
2017-05-16T06:48:33.745Z,75.60
2017-05-16T06:51:03.265Z,74.90
2017-05-16T06:53:32.849Z,75.00
2017-05-16T06:56:02.385Z,74.40
2017-05-16T06:58:31.950Z,73.60
2017-05-16T07:01:01.501Z,73.50
2017-05-16T07:03:31.041Z,72.80
2017-05-16T07:06:00.566Z,72.40
2017-05-16T07:08:30.201Z,67.30
2017-05-16T07:10:59.700Z,66.80
2017-05-16T07:13:29.444Z,65.10
2017-05-16T07:15:59.736Z,61.20
2017-05-16T07:18:29.277Z,61.20
2017-05-16T07:20:59.584Z,61.50
2017-05-16T07:23:29.861Z,63.60
2017-05-16T07:25:59.812Z,60.50
2017-05-16T07:28:29.341Z,59.00
2017-05-16T07:30:59.632Z,58.20
2017-05-16T07:33:29.169Z,58.10
2017-05-16T07:35:58.720Z,59.10
2017-05-16T07:38:28.252Z,58.00
2017-05-16T07:40:57.800Z,59.30
2017-05-16T07:43:27.336Z,56.60
2017-05-16T07:45:56.881Z,55.90
2017-05-16T07:48:26.409Z,56.00
2017-05-16T07:50:56.704Z,53.20
2017-05-16T07:56:05.016Z,51.20
2017-05-16T07:58:35.540Z,51.80
2017-05-16T08:01:05.059Z,53.50
2017-05-16T08:03:34.597Z,52.90
2017-05-16T08:06:05.176Z,51.90
2017-05-16T08:08:34.700Z,52.30
2017-05-16T08:11:04.232Z,50.70
2017-05-16T08:13:34.513Z,48.80
2017-05-16T08:16:04.040Z,49.10
2017-05-16T08:18:33.592Z,48.20
2017-05-16T08:21:03.124Z,48.00
2017-05-16T08:23:32.680Z,48.00
2017-05-16T08:26:02.212Z,48.10
2017-05-16T08:28:31.780Z,45.90
2017-05-16T08:31:02.172Z,46.80
2017-05-16T08:33:31.668Z,45.50
2017-05-16T08:36:01.196Z,45.50
2017-05-16T08:38:30.728Z,42.40
2017-05-16T08:41:00.999Z,42.90
2017-05-16T08:43:30.576Z,43.10
2017-05-16T08:46:00.104Z,42.00
2017-05-16T08:48:29.647Z,41.20
2017-05-16T08:50:59.184Z,41.40
2017-05-16T08:53:28.727Z,41.70
2017-05-16T08:55:58.264Z,40.00
2017-05-16T08:58:27.811Z,38.90
2017-05-16T09:00:57.340Z,37.10
2017-05-16T09:03:26.895Z,37.60
2017-05-16T09:05:57.161Z,36.90
2017-05-16T09:08:26.695Z,37.50
2017-05-16T09:10:56.219Z,38.50
2017-05-16T09:13:26.495Z,39.60
2017-05-16T09:15:56.023Z,36.70
2017-05-16T09:18:25.559Z,39.10
2017-05-16T09:20:55.827Z,40.00
2017-05-16T09:23:25.390Z,39.30
2017-05-16T09:25:55.642Z,40.20
2017-05-16T09:28:25.207Z,39.60
2017-05-16T09:30:55.471Z,37.80
2017-05-16T09:33:25.003Z,37.40
2017-05-16T09:35:54.530Z,39.30
2017-05-16T09:38:24.124Z,39.30
2017-05-16T09:40:53.647Z,37.10
2017-05-16T09:43:23.923Z,38.40
2017-05-16T09:45:53.447Z,38.30
2017-05-16T09:48:23.270Z,37.00
2017-05-16T09:50:52.791Z,35.60
2017-05-16T09:53:23.084Z,37.00
2017-05-16T09:55:52.610Z,36.50
2017-05-16T09:58:22.142Z,34.70
2017-05-16T10:00:51.682Z,38.90
2017-05-16T10:03:21.219Z,38.60
2017-05-16T10:05:50.762Z,37.00
2017-05-16T10:08:20.287Z,39.80
2017-05-16T10:10:49.818Z,38.20
2017-05-16T10:13:19.366Z,37.70
2017-05-16T10:15:49.635Z,37.60
2017-05-16T10:18:19.394Z,36.60
2017-05-16T10:20:49.659Z,35.20
2017-05-16T10:23:19.190Z,36.00
2017-05-16T10:25:48.718Z,36.00
2017-05-16T10:28:18.350Z,35.50
2017-05-16T10:30:48.002Z,37.50
2017-05-16T10:33:17.530Z,37.80
2017-05-16T10:38:16.066Z,37.50
2017-05-16T10:40:45.622Z,36.50
2017-05-16T10:43:15.154Z,39.80
2017-05-16T10:45:45.422Z,38.50
2017-05-16T10:48:15.106Z,38.90
2017-05-16T10:50:44.754Z,36.90
2017-05-16T10:53:14.275Z,37.30
2017-05-16T10:55:43.798Z,36.80
2017-05-16T10:58:14.085Z,35.60
2017-05-16T11:00:43.616Z,34.50
2017-05-16T11:03:13.162Z,36.30
2017-05-16T11:05:42.685Z,37.10
2017-05-16T11:08:12.213Z,36.30
2017-05-16T11:10:41.762Z,36.60
2017-05-16T11:13:11.289Z,36.20
2017-05-16T11:15:40.841Z,37.30
2017-05-16T11:18:10.361Z,35.50
2017-05-16T11:20:40.633Z,36.00
2017-05-16T11:23:10.189Z,35.30
2017-05-16T11:25:40.457Z,35.00
2017-05-16T11:28:09.994Z,37.30
2017-05-16T11:30:39.521Z,35.90
2017-05-16T11:33:09.810Z,37.70
2017-05-16T11:35:39.338Z,36.70
2017-05-16T11:38:08.873Z,36.70
2017-05-16T11:40:38.405Z,37.50
2017-05-16T11:43:07.969Z,35.30
2017-05-16T11:45:37.642Z,37.90
2017-05-16T11:48:07.333Z,36.20
2017-05-16T11:50:36.873Z,38.70
2017-05-16T11:53:06.405Z,36.00
2017-05-16T11:55:35.937Z,35.10
2017-05-16T11:58:05.469Z,35.40
2017-05-16T12:00:35.010Z,35.00
2017-05-16T12:03:05.281Z,34.90
2017-05-16T12:05:34.832Z,34.10
2017-05-16T12:08:05.101Z,35.60
2017-05-16T12:10:34.640Z,34.30
2017-05-16T12:13:04.166Z,34.30
2017-05-16T12:15:34.467Z,34.30
2017-05-16T12:18:03.993Z,33.30
2017-05-16T12:20:34.273Z,34.20
2017-05-16T12:23:03.916Z,34.70
2017-05-16T12:25:33.450Z,35.40
2017-05-16T12:28:06.673Z,35.40
2017-05-16T12:30:36.849Z,34.90
2017-05-16T12:33:07.161Z,35.60
2017-05-16T12:35:37.633Z,37.00
2017-05-16T12:38:07.160Z,35.50
2017-05-16T12:40:37.593Z,35.00
2017-05-16T12:43:07.121Z,34.30
2017-05-16T12:45:37.404Z,34.30
2017-05-16T12:48:06.928Z,34.60
2017-05-16T12:50:36.473Z,34.90
2017-05-16T12:53:06.008Z,34.70
2017-05-16T12:55:35.640Z,33.70
2017-05-16T12:58:05.197Z,33.80
2017-05-16T13:00:35.053Z,34.10
2017-05-16T13:03:04.814Z,35.90
2017-05-16T13:05:35.088Z,34.10
2017-05-16T13:08:04.608Z,33.10
2017-05-16T13:10:34.148Z,36.00
2017-05-16T13:13:03.693Z,34.60
2017-05-16T13:15:33.224Z,33.80
2017-05-16T13:18:02.776Z,32.20
2017-05-16T13:20:32.308Z,31.20
2017-05-16T13:23:01.844Z,31.70
2017-05-16T13:25:31.384Z,31.70
2017-05-16T13:28:00.909Z,33.10
2017-05-16T13:30:30.464Z,32.70
2017-05-16T13:33:00.048Z,32.10
2017-05-16T13:35:29.584Z,33.20
2017-05-16T13:37:59.875Z,32.80
2017-05-16T13:40:29.412Z,34.00
2017-05-16T13:42:59.691Z,33.30
2017-05-16T13:45:29.220Z,36.30
2017-05-16T13:47:58.772Z,34.30
2017-05-16T13:50:28.300Z,33.60
2017-05-16T13:52:57.848Z,34.30
2017-05-16T13:55:27.387Z,36.20
2017-05-16T13:57:56.907Z,34.60
2017-05-16T14:00:26.769Z,33.90
2017-05-16T14:02:56.292Z,34.00
2017-05-16T14:05:26.559Z,34.10
2017-05-16T14:07:56.108Z,33.90
2017-05-16T14:10:26.407Z,35.00
2017-05-16T14:12:55.957Z,35.30
2017-05-16T14:15:25.492Z,37.20
2017-05-16T14:17:55.032Z,34.30
2017-05-16T14:20:24.560Z,33.20
2017-05-16T14:22:54.839Z,34.50
2017-05-16T14:25:24.455Z,36.10
2017-05-16T14:27:54.051Z,34.10
2017-05-16T14:30:23.647Z,33.80
2017-05-16T14:32:53.179Z,33.70
2017-05-16T14:35:22.761Z,34.50
2017-05-16T14:37:52.287Z,33.60
2017-05-16T14:40:21.819Z,35.20
2017-05-16T14:42:51.343Z,33.90
2017-05-16T14:45:20.891Z,36.00
2017-05-16T14:47:50.423Z,34.60
2017-05-16T14:50:20.006Z,34.60
2017-05-16T14:52:49.494Z,34.80
2017-05-16T14:55:19.023Z,34.00
2017-05-16T14:57:48.572Z,34.80
2017-05-16T15:00:18.095Z,34.90
2017-05-16T15:02:47.735Z,34.30
2017-05-16T15:05:17.215Z,34.30
2017-05-16T15:07:46.746Z,33.70
2017-05-16T15:10:16.387Z,32.50
2017-05-16T15:12:46.143Z,32.10
2017-05-16T15:15:15.662Z,33.70
2017-05-16T15:17:45.186Z,33.70
2017-05-16T15:20:15.782Z,33.10
2017-05-16T15:22:45.323Z,33.80
2017-05-16T15:25:14.874Z,35.20
2017-05-16T15:27:44.438Z,34.30
2017-05-16T15:30:13.990Z,33.80
2017-05-16T15:32:43.530Z,35.50
2017-05-16T15:35:13.066Z,35.10
2017-05-16T15:37:43.382Z,34.80
2017-05-16T15:40:12.874Z,33.60
2017-05-16T15:42:42.394Z,34.80
2017-05-16T15:45:12.670Z,33.80
2017-05-16T15:47:42.194Z,34.30
2017-05-16T15:50:11.726Z,33.80
2017-05-16T15:52:43.034Z,33.40
2017-05-16T15:55:12.530Z,33.20
2017-05-16T15:57:42.058Z,33.10
2017-05-16T16:00:11.598Z,33.80
2017-05-16T16:02:41.865Z,34.00
2017-05-16T16:05:11.610Z,35.00
2017-05-16T16:07:41.135Z,34.60
2017-05-16T16:10:11.415Z,33.00
2017-05-16T16:12:40.970Z,33.50
2017-05-16T16:15:10.512Z,33.70
2017-05-16T16:17:40.034Z,33.40
2017-05-16T16:20:09.566Z,33.10
2017-05-16T16:22:39.837Z,34.90
2017-05-16T16:25:09.366Z,36.90
2017-05-16T16:27:38.889Z,36.50
2017-05-16T16:30:08.426Z,36.10
2017-05-16T16:32:37.966Z,37.40
2017-05-16T16:35:07.526Z,37.00
2017-05-16T16:37:37.793Z,36.70
2017-05-16T16:40:07.338Z,36.80
2017-05-16T16:42:36.857Z,38.20
2017-05-16T16:45:07.237Z,37.10
2017-05-16T16:47:36.727Z,37.10
2017-05-16T16:50:06.269Z,36.90
2017-05-16T16:52:35.809Z,36.80
2017-05-16T16:55:05.349Z,37.10
2017-05-16T16:57:35.558Z,38.60
2017-05-16T17:00:05.113Z,39.20
2017-05-16T17:02:34.645Z,37.50
2017-05-16T17:05:04.170Z,38.50
2017-05-16T17:07:33.763Z,38.60
2017-05-16T17:10:04.001Z,38.50
2017-05-16T17:12:33.553Z,37.80
2017-05-16T17:15:03.078Z,37.10
2017-05-16T17:17:33.353Z,37.10
2017-05-16T17:20:02.881Z,36.90
2017-05-16T17:22:32.421Z,36.30
2017-05-16T17:25:01.948Z,36.20
2017-05-16T17:27:31.477Z,36.10
2017-05-16T17:30:01.017Z,37.60
2017-05-16T17:32:31.289Z,37.80
2017-05-16T17:35:00.821Z,38.30
2017-05-16T17:37:30.352Z,38.00
2017-05-16T17:40:00.630Z,37.80
2017-05-16T17:42:30.173Z,37.40
2017-05-16T17:45:00.436Z,38.50
2017-05-16T17:47:29.969Z,37.80
2017-05-16T17:49:59.576Z,38.80
2017-05-16T17:52:29.065Z,39.20
2017-05-16T17:54:59.448Z,39.50
2017-05-16T17:57:29.740Z,40.10
2017-05-16T17:59:59.272Z,40.80
2017-05-16T18:02:29.552Z,41.30
2017-05-16T18:04:59.077Z,42.00
2017-05-16T18:07:28.641Z,41.50
2017-05-16T18:09:58.213Z,41.80
2017-05-16T18:12:28.516Z,40.70
2017-05-16T18:14:58.048Z,40.70
2017-05-16T18:17:28.344Z,40.80
2017-05-16T18:19:58.721Z,42.60
2017-05-16T18:22:28.344Z,42.90
2017-05-16T18:24:58.612Z,43.60
2017-05-16T18:27:28.340Z,44.60
2017-05-16T18:29:59.847Z,46.20
2017-05-16T18:32:29.430Z,45.10
2017-05-16T18:34:59.661Z,45.60
2017-05-16T18:37:30.172Z,46.20
2017-05-16T18:39:59.718Z,46.60
2017-05-16T18:42:29.257Z,46.30
2017-05-16T18:44:58.807Z,46.60
2017-05-16T18:47:28.337Z,47.10
2017-05-16T18:49:57.876Z,47.70
2017-05-16T18:52:27.432Z,46.90
2017-05-16T18:54:56.992Z,47.30
2017-05-16T18:57:27.072Z,48.30
2017-05-16T18:59:57.575Z,49.00
2017-05-16T19:02:27.124Z,49.20
2017-05-16T19:04:57.652Z,49.40
2017-05-16T19:07:27.176Z,49.00
2017-05-16T19:09:56.703Z,50.30
2017-05-16T19:12:26.239Z,50.00
2017-05-16T19:14:55.771Z,49.60
2017-05-16T19:17:26.067Z,49.20
2017-05-16T19:19:55.615Z,52.10
2017-05-16T19:22:25.168Z,51.40
2017-05-16T19:24:54.704Z,50.70
2017-05-16T19:27:25.024Z,50.80
2017-05-16T19:29:54.560Z,51.10
2017-05-16T19:32:24.153Z,51.90
2017-05-16T19:34:54.431Z,52.10
2017-05-16T19:37:23.975Z,52.00
2017-05-16T19:39:56.468Z,52.00
2017-05-16T19:42:26.015Z,54.50
2017-05-16T19:44:55.571Z,55.20
2017-05-16T19:47:25.107Z,56.20
2017-05-16T19:49:54.660Z,56.20
2017-05-16T19:52:24.195Z,56.50
2017-05-16T19:54:53.727Z,56.60
2017-05-16T19:57:23.295Z,58.90
2017-05-16T19:59:52.831Z,58.70
2017-05-16T20:02:22.383Z,57.30
2017-05-16T20:04:52.663Z,56.30
2017-05-16T20:07:22.227Z,55.40
2017-05-16T20:09:53.663Z,54.80
2017-05-16T20:12:23.950Z,55.70
2017-05-16T20:14:54.447Z,55.40
2017-05-16T20:17:24.007Z,55.20
2017-05-16T20:19:53.538Z,55.70
2017-05-16T20:22:23.107Z,55.50
2017-05-16T20:24:52.646Z,55.60
2017-05-16T20:27:22.931Z,56.50
2017-05-16T20:29:52.466Z,55.90
2017-05-16T20:32:22.755Z,56.60
2017-05-16T20:34:52.299Z,58.70
2017-05-16T20:37:22.590Z,59.80
2017-05-16T20:39:52.136Z,59.50
2017-05-16T20:42:21.683Z,60.80
2017-05-16T20:44:51.223Z,60.40
2017-05-16T20:47:21.547Z,59.10
2017-05-16T20:49:51.075Z,59.90
2017-05-16T20:52:20.639Z,59.30
2017-05-16T20:54:56.046Z,59.50
2017-05-16T20:57:29.778Z,59.00
2017-05-16T20:59:59.307Z,60.90
2017-05-16T21:02:29.594Z,62.80
2017-05-16T21:04:59.974Z,64.40
2017-05-16T21:07:31.206Z,64.20
2017-05-16T21:10:01.266Z,63.20
2017-05-16T21:12:30.818Z,62.00
2017-05-16T21:15:02.314Z,60.80
2017-05-16T21:17:31.858Z,59.80
2017-05-16T21:20:03.365Z,59.40
2017-05-16T21:22:32.950Z,60.60
2017-05-16T21:25:03.237Z,60.70
2017-05-16T21:27:37.625Z,59.30
2017-05-16T21:30:07.182Z,58.70
2017-05-16T21:32:36.713Z,59.40
2017-05-16T21:35:06.258Z,59.60
2017-05-16T21:37:35.806Z,60.30
2017-05-16T21:40:11.310Z,61.20
2017-05-16T21:42:44.074Z,63.50
2017-05-16T21:45:13.610Z,63.30
2017-05-16T21:47:43.145Z,62.20
2017-05-16T21:50:13.541Z,61.70
2017-05-16T21:52:43.082Z,61.90
2017-05-16T21:55:16.926Z,61.40
2017-05-16T21:57:47.422Z,62.00
2017-05-16T22:00:16.985Z,65.90
2017-05-16T22:02:46.501Z,65.20
2017-05-16T22:05:16.045Z,64.30
2017-05-16T22:07:47.597Z,64.30
2017-05-16T22:10:40.542Z,64.50
2017-05-16T22:13:16.029Z,63.70
2017-05-16T22:15:45.585Z,63.90
2017-05-16T22:18:16.833Z,63.70
2017-05-16T22:20:48.118Z,64.00
2017-05-16T22:23:18.565Z,65.50
2017-05-16T22:25:54.410Z,67.60
2017-05-16T22:28:28.485Z,67.90
2017-05-16T22:30:59.953Z,66.90
2017-05-16T22:33:30.373Z,67.00
2017-05-16T22:35:59.917Z,67.60
2017-05-16T22:38:29.469Z,67.40
2017-05-16T22:40:59.041Z,68.00
2017-05-16T22:43:28.594Z,68.40
2017-05-16T22:46:00.137Z,68.60
2017-05-16T22:48:35.345Z,68.50
2017-05-16T22:51:07.673Z,68.10
2017-05-16T22:53:38.190Z,68.40
2017-05-16T22:56:07.720Z,69.00
2017-05-16T22:58:37.277Z,69.80
2017-05-16T23:01:09.560Z,69.90
2017-05-16T23:03:41.111Z,69.10
2017-05-16T23:06:13.989Z,67.70
2017-05-16T23:08:43.537Z,64.00
2017-05-16T23:11:15.089Z,63.70
2017-05-16T23:13:49.262Z,64.40
2017-05-16T23:16:26.637Z,64.30
2017-05-16T23:21:51.360Z,66.60
2017-05-16T23:24:25.133Z,65.00
2017-05-16T23:26:56.444Z,65.50
2017-05-16T23:29:25.981Z,64.60
2017-05-16T23:31:55.544Z,65.10
2017-05-16T23:34:47.152Z,65.80
2017-05-16T23:37:21.876Z,65.40
2017-05-16T23:39:54.664Z,65.30
2017-05-16T23:42:29.305Z,64.70
2017-05-16T23:45:02.208Z,65.20
2017-05-16T23:47:31.752Z,64.60
2017-05-16T23:50:02.289Z,64.90
2017-05-16T23:52:32.867Z,65.20
2017-05-16T23:55:03.357Z,65.30
2017-05-16T23:57:32.924Z,66.10
